sensor_id;sensor_type;location;lat;lon;timestamp;pressure;altitude;pressure_sealevel;temperature;humidity
30819;BME280;17546;42.674;23.284;2024-02-28T00:00:04;95067.66;;;17.52;36.92
30819;BME280;17546;42.674;23.284;2024-02-28T00:02:30;95061.22;;;17.58;36.83
30819;BME280;17546;42.674;23.284;2024-02-28T00:04:55;95063.16;;;17.63;36.62
30819;BME280;17546;42.674;23.284;2024-02-28T00:07:24;95034.38;;;17.35;36.70
30819;BME280;17546;42.674;23.284;2024-02-28T00:09:49;95036.31;;;17.41;36.68
30819;BME280;17546;42.674;23.284;2024-02-28T00:12:15;95046.44;;;17.44;36.49
30819;BME280;17546;42.674;23.284;2024-02-28T00:14:40;95065.31;;;17.56;36.35
30819;BME280;17546;42.674;23.284;2024-02-28T00:17:06;95069.16;;;17.40;36.65
30819;BME280;17546;42.674;23.284;2024-02-28T00:19:31;95069.56;;;17.31;36.88
30819;BME280;17546;42.674;23.284;2024-02-28T00:21:57;95063.63;;;17.34;36.74
30819;BME280;17546;42.674;23.284;2024-02-28T00:24:25;95035.50;;;17.13;36.86
30819;BME280;17546;42.674;23.284;2024-02-28T00:26:50;95043.84;;;17.00;37.15
30819;BME280;17546;42.674;23.284;2024-02-28T00:29:16;95056.97;;;17.05;37.30
30819;BME280;17546;42.674;23.284;2024-02-28T00:31:41;95069.09;;;17.13;37.20
30819;BME280;17546;42.674;23.284;2024-02-28T00:34:07;95061.97;;;17.12;37.13
30819;BME280;17546;42.674;23.284;2024-02-28T00:36:34;95053.50;;;16.99;37.54
30819;BME280;17546;42.674;23.284;2024-02-28T00:38:59;95055.78;;;17.01;37.43
30819;BME280;17546;42.674;23.284;2024-02-28T00:41:25;95058.66;;;16.95;37.62
30819;BME280;17546;42.674;23.284;2024-02-28T00:43:50;95062.13;;;17.01;37.70
30819;BME280;17546;42.674;23.284;2024-02-28T00:46:16;95052.75;;;16.99;37.56
30819;BME280;17546;42.674;23.284;2024-02-28T00:48:41;95046.13;;;16.83;37.65
30819;BME280;17546;42.674;23.284;2024-02-28T00:51:07;95061.38;;;17.01;37.49
30819;BME280;17546;42.674;23.284;2024-02-28T00:53:36;95051.78;;;16.96;37.64
30819;BME280;17546;42.674;23.284;2024-02-28T00:56:02;95035.47;;;16.81;37.56
30819;BME280;17546;42.674;23.284;2024-02-28T00:58:27;95050.88;;;16.88;37.26
30819;BME280;17546;42.674;23.284;2024-02-28T01:00:55;95052.09;;;16.73;37.63
30819;BME280;17546;42.674;23.284;2024-02-28T01:03:20;95068.97;;;16.87;37.73
30819;BME280;17546;42.674;23.284;2024-02-28T01:05:46;95084.34;;;16.74;37.79
30819;BME280;17546;42.674;23.284;2024-02-28T01:08:12;95072.09;;;16.78;37.74
30819;BME280;17546;42.674;23.284;2024-02-28T01:10:37;95067.13;;;16.70;37.56
30819;BME280;17546;42.674;23.284;2024-02-28T01:13:03;95068.31;;;16.75;37.44
30819;BME280;17546;42.674;23.284;2024-02-28T01:15:29;95071.59;;;16.79;37.47
30819;BME280;17546;42.674;23.284;2024-02-28T01:17:54;95074.41;;;16.60;37.88
30819;BME280;17546;42.674;23.284;2024-02-28T01:20:20;95067.44;;;16.67;37.89
30819;BME280;17546;42.674;23.284;2024-02-28T01:22:45;95073.16;;;16.74;37.78
30819;BME280;17546;42.674;23.284;2024-02-28T01:25:11;95047.47;;;16.57;37.78
30819;BME280;17546;42.674;23.284;2024-02-28T01:27:36;95070.44;;;16.69;37.83
30819;BME280;17546;42.674;23.284;2024-02-28T01:30:02;95078.31;;;16.70;37.85
30819;BME280;17546;42.674;23.284;2024-02-28T01:32:29;95077.94;;;16.61;37.96
30819;BME280;17546;42.674;23.284;2024-02-28T01:34:55;95075.66;;;16.59;38.17
30819;BME280;17546;42.674;23.284;2024-02-28T01:37:20;95055.31;;;16.40;38.16
30819;BME280;17546;42.674;23.284;2024-02-28T01:39:45;95062.34;;;16.46;38.19
30819;BME280;17546;42.674;23.284;2024-02-28T01:42:11;95075.75;;;16.53;38.21
30819;BME280;17546;42.674;23.284;2024-02-28T01:44:43;95086.47;;;16.49;38.51
30819;BME280;17546;42.674;23.284;2024-02-28T01:47:09;95084.66;;;16.52;38.43
30819;BME280;17546;42.674;23.284;2024-02-28T01:49:35;95090.94;;;16.58;38.28
30819;BME280;17546;42.674;23.284;2024-02-28T01:52:00;95085.59;;;16.60;38.18
30819;BME280;17546;42.674;23.284;2024-02-28T01:54:27;95076.50;;;16.54;38.19
30819;BME280;17546;42.674;23.284;2024-02-28T01:56:53;95063.25;;;16.36;38.23
30819;BME280;17546;42.674;23.284;2024-02-28T01:59:19;95086.16;;;16.53;38.16
30819;BME280;17546;42.674;23.284;2024-02-28T02:01:45;95069.84;;;16.38;38.20
30819;BME280;17546;42.674;23.284;2024-02-28T02:04:11;95089.50;;;16.51;38.23
30819;BME280;17546;42.674;23.284;2024-02-28T02:06:38;95071.13;;;16.37;38.05
30819;BME280;17546;42.674;23.284;2024-02-28T02:09:07;95074.19;;;16.33;38.41
30819;BME280;17546;42.674;23.284;2024-02-28T02:11:32;95093.88;;;16.47;38.44
30819;BME280;17546;42.674;23.284;2024-02-28T02:13:58;95070.13;;;16.35;38.53
30819;BME280;17546;42.674;23.284;2024-02-28T02:16:24;95087.22;;;16.50;38.51
30819;BME280;17546;42.674;23.284;2024-02-28T02:18:52;95078.63;;;16.48;38.50
30819;BME280;17546;42.674;23.284;2024-02-28T02:21:20;95087.53;;;16.46;38.53
30819;BME280;17546;42.674;23.284;2024-02-28T02:23:47;95091.16;;;16.41;38.56
30819;BME280;17546;42.674;23.284;2024-02-28T02:26:13;95070.28;;;16.42;38.57
30819;BME280;17546;42.674;23.284;2024-02-28T02:28:39;95069.53;;;16.23;38.63
30819;BME280;17546;42.674;23.284;2024-02-28T02:31:04;95086.63;;;16.38;38.68
30819;BME280;17546;42.674;23.284;2024-02-28T02:33:30;95070.56;;;16.20;38.93
30819;BME280;17546;42.674;23.284;2024-02-28T02:35:55;95061.72;;;16.16;38.75
30819;BME280;17546;42.674;23.284;2024-02-28T02:38:21;95083.75;;;16.25;38.96
30819;BME280;17546;42.674;23.284;2024-02-28T02:40:50;95087.97;;;16.31;38.90
30819;BME280;17546;42.674;23.284;2024-02-28T02:43:16;95085.38;;;16.33;38.82
30819;BME280;17546;42.674;23.284;2024-02-28T02:45:41;95092.50;;;16.35;38.97
30819;BME280;17546;42.674;23.284;2024-02-28T02:48:08;95068.00;;;16.22;38.75
30819;BME280;17546;42.674;23.284;2024-02-28T02:50:33;95086.16;;;16.34;38.71
30819;BME280;17546;42.674;23.284;2024-02-28T02:52:59;95052.44;;;16.07;38.66
30819;BME280;17546;42.674;23.284;2024-02-28T02:55:24;95091.44;;;16.38;38.82
30819;BME280;17546;42.674;23.284;2024-02-28T02:57:50;95081.50;;;16.18;39.12
30819;BME280;17546;42.674;23.284;2024-02-28T03:00:15;95085.75;;;16.24;39.01
30819;BME280;17546;42.674;23.284;2024-02-28T03:02:41;95076.91;;;16.20;39.09
30819;BME280;17546;42.674;23.284;2024-02-28T03:05:07;95085.22;;;16.26;39.16
30819;BME280;17546;42.674;23.284;2024-02-28T03:07:32;95081.47;;;16.23;39.14
30819;BME280;17546;42.674;23.284;2024-02-28T03:09:58;95082.97;;;16.24;39.29
30819;BME280;17546;42.674;23.284;2024-02-28T03:12:24;95085.97;;;16.26;39.06
30819;BME280;17546;42.674;23.284;2024-02-28T03:14:49;95095.34;;;16.29;39.05
30819;BME280;17546;42.674;23.284;2024-02-28T03:17:15;95062.09;;;16.06;39.12
30819;BME280;17546;42.674;23.284;2024-02-28T03:19:43;95077.16;;;15.98;39.32
30819;BME280;17546;42.674;23.284;2024-02-28T03:22:09;95105.44;;;16.13;39.34
30819;BME280;17546;42.674;23.284;2024-02-28T03:24:34;95102.13;;;16.15;39.12
30819;BME280;17546;42.674;23.284;2024-02-28T03:27:04;95105.91;;;16.17;39.31
30819;BME280;17546;42.674;23.284;2024-02-28T03:29:29;95091.25;;;16.11;39.26
30819;BME280;17546;42.674;23.284;2024-02-28T03:31:55;95101.06;;;16.18;39.18
30819;BME280;17546;42.674;23.284;2024-02-28T03:34:21;95092.41;;;16.21;39.07
30819;BME280;17546;42.674;23.284;2024-02-28T03:36:46;95098.47;;;16.25;38.79
30819;BME280;17546;42.674;23.284;2024-02-28T03:39:12;95107.59;;;16.26;39.02
30819;BME280;17546;42.674;23.284;2024-02-28T03:41:38;95116.25;;;16.22;39.15
30819;BME280;17546;42.674;23.284;2024-02-28T03:44:04;95099.84;;;16.13;39.24
30819;BME280;17546;42.674;23.284;2024-02-28T03:46:30;95097.53;;;16.17;39.12
30819;BME280;17546;42.674;23.284;2024-02-28T03:48:55;95103.13;;;16.17;39.18
30819;BME280;17546;42.674;23.284;2024-02-28T03:51:21;95111.50;;;16.17;39.37
30819;BME280;17546;42.674;23.284;2024-02-28T03:53:46;95111.97;;;16.21;39.27
30819;BME280;17546;42.674;23.284;2024-02-28T03:56:12;95085.78;;;16.00;39.14
30819;BME280;17546;42.674;23.284;2024-02-28T03:58:37;95113.59;;;16.11;39.34
30819;BME280;17546;42.674;23.284;2024-02-28T04:01:03;95111.91;;;16.02;39.52
30819;BME280;17546;42.674;23.284;2024-02-28T04:03:29;95109.13;;;16.02;39.60
30819;BME280;17546;42.674;23.284;2024-02-28T04:05:54;95110.94;;;16.00;39.52
30819;BME280;17546;42.674;23.284;2024-02-28T04:08:20;95110.09;;;16.05;39.58
30819;BME280;17546;42.674;23.284;2024-02-28T04:10:45;95106.31;;;16.02;39.62
30819;BME280;17546;42.674;23.284;2024-02-28T04:13:11;95109.91;;;16.03;39.47
30819;BME280;17546;42.674;23.284;2024-02-28T04:15:36;95103.53;;;16.02;39.45
30819;BME280;17546;42.674;23.284;2024-02-28T04:18:03;95106.88;;;16.01;39.50
30819;BME280;17546;42.674;23.284;2024-02-28T04:20:29;95101.50;;;16.03;39.63
30819;BME280;17546;42.674;23.284;2024-02-28T04:22:54;95074.63;;;15.75;39.57
30819;BME280;17546;42.674;23.284;2024-02-28T04:25:20;95091.25;;;15.86;39.71
30819;BME280;17546;42.674;23.284;2024-02-28T04:27:45;95104.63;;;15.94;39.71
30819;BME280;17546;42.674;23.284;2024-02-28T04:30:12;95101.84;;;15.94;39.94
30819;BME280;17546;42.674;23.284;2024-02-28T04:32:38;95104.88;;;15.96;39.96
30819;BME280;17546;42.674;23.284;2024-02-28T04:35:03;95103.59;;;15.97;39.81
30819;BME280;17546;42.674;23.284;2024-02-28T04:37:29;95106.16;;;15.95;39.98
30819;BME280;17546;42.674;23.284;2024-02-28T04:39:54;95086.19;;;15.85;39.74
30819;BME280;17546;42.674;23.284;2024-02-28T04:42:20;95084.69;;;15.84;39.62
30819;BME280;17546;42.674;23.284;2024-02-28T04:44:45;95110.22;;;15.94;39.82
30819;BME280;17546;42.674;23.284;2024-02-28T04:47:11;95087.00;;;15.80;39.64
30819;BME280;17546;42.674;23.284;2024-02-28T04:49:37;95090.91;;;15.71;40.01
30819;BME280;17546;42.674;23.284;2024-02-28T04:52:04;95115.69;;;15.80;40.26
30819;BME280;17546;42.674;23.284;2024-02-28T04:54:30;95114.59;;;15.89;39.90
30819;BME280;17546;42.674;23.284;2024-02-28T04:56:55;95118.69;;;15.88;40.03
30819;BME280;17546;42.674;23.284;2024-02-28T04:59:21;95113.13;;;15.82;40.20
30819;BME280;17546;42.674;23.284;2024-02-28T05:01:46;95101.31;;;15.65;40.18
30819;BME280;17546;42.674;23.284;2024-02-28T05:04:13;95100.84;;;15.61;40.08
30819;BME280;17546;42.674;23.284;2024-02-28T05:06:39;95117.28;;;15.70;40.05
30819;BME280;17546;42.674;23.284;2024-02-28T05:09:04;95100.69;;;15.53;40.14
30819;BME280;17546;42.674;23.284;2024-02-28T05:11:30;95102.97;;;15.55;40.28
30819;BME280;17546;42.674;23.284;2024-02-28T05:13:55;95136.84;;;15.70;40.43
30819;BME280;17546;42.674;23.284;2024-02-28T05:16:21;95144.72;;;15.72;40.30
30819;BME280;17546;42.674;23.284;2024-02-28T05:18:46;95142.94;;;15.74;40.45
30819;BME280;17546;42.674;23.284;2024-02-28T05:21:12;95141.66;;;15.69;40.33
30819;BME280;17546;42.674;23.284;2024-02-28T05:23:39;95134.59;;;15.63;40.42
30819;BME280;17546;42.674;23.284;2024-02-28T05:26:04;95147.34;;;15.58;40.56
30819;BME280;17546;42.674;23.284;2024-02-28T05:28:35;95130.03;;;15.29;41.02
30819;BME280;17546;42.674;23.284;2024-02-28T05:31:22;95134.78;;;15.40;40.69
30819;BME280;17546;42.674;23.284;2024-02-28T05:33:50;95132.56;;;15.33;40.89
30819;BME280;17546;42.674;23.284;2024-02-28T05:36:16;95143.25;;;15.29;40.88
30819;BME280;17546;42.674;23.284;2024-02-28T05:38:43;95162.84;;;15.54;40.93
30819;BME280;17546;42.674;23.284;2024-02-28T05:41:08;95144.53;;;15.28;41.09
30819;BME280;17546;42.674;23.284;2024-02-28T05:43:34;95149.00;;;15.06;41.94
30819;BME280;17546;42.674;23.284;2024-02-28T05:46:00;95152.22;;;15.16;41.53
30819;BME280;17546;42.674;23.284;2024-02-28T05:48:26;95164.34;;;15.24;41.47
30819;BME280;17546;42.674;23.284;2024-02-28T05:50:51;95187.31;;;15.42;41.55
30819;BME280;17546;42.674;23.284;2024-02-28T05:53:16;95178.56;;;15.21;41.62
30819;BME280;17546;42.674;23.284;2024-02-28T05:55:42;95156.84;;;15.08;41.56
30819;BME280;17546;42.674;23.284;2024-02-28T05:58:09;95189.63;;;15.38;41.69
30819;BME280;17546;42.674;23.284;2024-02-28T06:00:35;95174.19;;;15.31;41.75
30819;BME280;17546;42.674;23.284;2024-02-28T06:03:00;95180.41;;;15.48;41.45
30819;BME280;17546;42.674;23.284;2024-02-28T06:05:26;95167.41;;;15.21;41.95
30819;BME280;17546;42.674;23.284;2024-02-28T06:07:51;95196.25;;;15.35;41.90
30819;BME280;17546;42.674;23.284;2024-02-28T06:10:17;95170.25;;;15.15;42.19
30819;BME280;17546;42.674;23.284;2024-02-28T06:12:42;95201.53;;;15.44;42.08
30819;BME280;17546;42.674;23.284;2024-02-28T06:15:08;95206.28;;;15.49;41.85
30819;BME280;17546;42.674;23.284;2024-02-28T06:17:33;95208.09;;;15.46;41.98
30819;BME280;17546;42.674;23.284;2024-02-28T06:19:59;95188.31;;;15.44;42.07
30819;BME280;17546;42.674;23.284;2024-02-28T06:22:24;95202.94;;;15.56;41.91
30819;BME280;17546;42.674;23.284;2024-02-28T06:24:50;95194.63;;;15.50;42.00
30819;BME280;17546;42.674;23.284;2024-02-28T06:27:15;95202.09;;;15.67;41.73
30819;BME280;17546;42.674;23.284;2024-02-28T06:29:41;95211.94;;;15.79;41.87
30819;BME280;17546;42.674;23.284;2024-02-28T06:32:07;95195.94;;;15.80;41.75
30819;BME280;17546;42.674;23.284;2024-02-28T06:34:32;95174.69;;;15.71;41.68
30819;BME280;17546;42.674;23.284;2024-02-28T06:36:58;95187.53;;;15.85;41.44
30819;BME280;17546;42.674;23.284;2024-02-28T06:39:23;95211.75;;;16.02;41.51
30819;BME280;17546;42.674;23.284;2024-02-28T06:41:49;95210.91;;;16.13;41.47
30819;BME280;17546;42.674;23.284;2024-02-28T06:44:20;95205.25;;;16.18;41.19
30819;BME280;17546;42.674;23.284;2024-02-28T06:46:46;95203.97;;;16.19;41.36
30819;BME280;17546;42.674;23.284;2024-02-28T06:49:11;95208.69;;;16.30;41.24
30819;BME280;17546;42.674;23.284;2024-02-28T06:51:37;95213.06;;;16.25;41.35
30819;BME280;17546;42.674;23.284;2024-02-28T06:54:03;95178.06;;;16.19;41.27
30819;BME280;17546;42.674;23.284;2024-02-28T06:56:30;95169.84;;;16.26;41.05
30819;BME280;17546;42.674;23.284;2024-02-28T06:58:56;95183.47;;;16.36;40.96
30819;BME280;17546;42.674;23.284;2024-02-28T07:01:21;95216.28;;;16.05;41.67
30819;BME280;17546;42.674;23.284;2024-02-28T07:03:47;95166.66;;;16.17;41.16
30819;BME280;17546;42.674;23.284;2024-02-28T07:06:12;95201.66;;;16.48;41.05
30819;BME280;17546;42.674;23.284;2024-02-28T07:08:38;95208.97;;;16.51;40.89
30819;BME280;17546;42.674;23.284;2024-02-28T07:11:05;95209.38;;;16.61;40.62
30819;BME280;17546;42.674;23.284;2024-02-28T07:13:30;95204.31;;;16.59;40.82
30819;BME280;17546;42.674;23.284;2024-02-28T07:15:56;95205.72;;;16.22;41.72
30819;BME280;17546;42.674;23.284;2024-02-28T07:18:23;95210.03;;;16.48;41.08
30819;BME280;17546;42.674;23.284;2024-02-28T07:20:51;95207.47;;;16.50;41.08
30819;BME280;17546;42.674;23.284;2024-02-28T07:23:17;95198.25;;;16.55;40.95
30819;BME280;17546;42.674;23.284;2024-02-28T07:25:43;95192.88;;;16.57;40.89
30819;BME280;17546;42.674;23.284;2024-02-28T07:28:08;95195.31;;;16.23;41.36
30819;BME280;17546;42.674;23.284;2024-02-28T07:30:34;95211.19;;;16.33;41.59
30819;BME280;17546;42.674;23.284;2024-02-28T07:33:00;95204.56;;;16.37;41.42
30819;BME280;17546;42.674;23.284;2024-02-28T07:35:26;95169.38;;;16.22;41.32
30819;BME280;17546;42.674;23.284;2024-02-28T07:37:51;95210.19;;;16.56;41.06
30819;BME280;17546;42.674;23.284;2024-02-28T07:40:17;95210.63;;;16.41;41.87
30819;BME280;17546;42.674;23.284;2024-02-28T07:42:42;95212.81;;;16.72;41.33
30819;BME280;17546;42.674;23.284;2024-02-28T07:45:08;95218.88;;;16.03;43.11
30819;BME280;17546;42.674;23.284;2024-02-28T07:47:34;95195.47;;;16.06;42.40
30819;BME280;17546;42.674;23.284;2024-02-28T07:49:59;95210.88;;;16.62;41.60
30819;BME280;17546;42.674;23.284;2024-02-28T07:52:25;95191.38;;;16.56;41.44
30819;BME280;17546;42.674;23.284;2024-02-28T07:54:50;95195.19;;;16.78;41.33
30819;BME280;17546;42.674;23.284;2024-02-28T07:57:16;95206.41;;;16.28;42.05
30819;BME280;17546;42.674;23.284;2024-02-28T07:59:42;95186.13;;;16.71;41.23
30819;BME280;17546;42.674;23.284;2024-02-28T08:02:08;95212.41;;;16.63;41.74
30819;BME280;17546;42.674;23.284;2024-02-28T08:04:35;95215.34;;;16.95;40.77
30819;BME280;17546;42.674;23.284;2024-02-28T08:07:01;95211.69;;;17.25;40.55
30819;BME280;17546;42.674;23.284;2024-02-28T08:09:26;95209.91;;;17.22;40.47
30819;BME280;17546;42.674;23.284;2024-02-28T08:11:52;95196.75;;;17.35;40.56
30819;BME280;17546;42.674;23.284;2024-02-28T08:14:17;95200.00;;;16.58;41.66
30819;BME280;17546;42.674;23.284;2024-02-28T08:16:43;95207.94;;;17.54;40.21
30819;BME280;17546;42.674;23.284;2024-02-28T08:19:09;95182.94;;;17.56;40.03
30819;BME280;17546;42.674;23.284;2024-02-28T08:21:34;95188.81;;;17.72;39.79
30819;BME280;17546;42.674;23.284;2024-02-28T08:24:00;95192.84;;;18.09;38.97
30819;BME280;17546;42.674;23.284;2024-02-28T08:26:30;95198.66;;;17.79;39.45
30819;BME280;17546;42.674;23.284;2024-02-28T08:28:55;95196.09;;;18.13;38.98
30819;BME280;17546;42.674;23.284;2024-02-28T08:31:21;95186.59;;;18.16;38.59
30819;BME280;17546;42.674;23.284;2024-02-28T08:33:46;95194.13;;;17.75;39.25
30819;BME280;17546;42.674;23.284;2024-02-28T08:36:12;95188.44;;;18.40;38.31
30819;BME280;17546;42.674;23.284;2024-02-28T08:38:37;95166.53;;;18.25;38.23
30819;BME280;17546;42.674;23.284;2024-02-28T08:41:04;95203.13;;;18.59;37.80
30819;BME280;17546;42.674;23.284;2024-02-28T08:43:30;95169.97;;;18.18;38.19
30819;BME280;17546;42.674;23.284;2024-02-28T08:45:56;95177.13;;;18.32;38.31
30819;BME280;17546;42.674;23.284;2024-02-28T08:48:21;95182.31;;;18.55;37.96
30819;BME280;17546;42.674;23.284;2024-02-28T08:50:48;95180.81;;;18.94;37.48
30819;BME280;17546;42.674;23.284;2024-02-28T08:53:14;95197.31;;;18.71;37.69
30819;BME280;17546;42.674;23.284;2024-02-28T08:55:39;95173.25;;;18.35;38.16
30819;BME280;17546;42.674;23.284;2024-02-28T08:58:05;95178.97;;;17.84;39.76
30819;BME280;17546;42.674;23.284;2024-02-28T09:00:30;95167.34;;;17.61;39.38
30819;BME280;17546;42.674;23.284;2024-02-28T09:02:55;95194.81;;;18.54;38.12
30819;BME280;17546;42.674;23.284;2024-02-28T09:05:23;95168.28;;;18.68;37.64
30819;BME280;17546;42.674;23.284;2024-02-28T09:07:48;95176.72;;;18.82;37.89
30819;BME280;17546;42.674;23.284;2024-02-28T09:10:17;95194.63;;;18.92;37.46
30819;BME280;17546;42.674;23.284;2024-02-28T09:12:47;95187.47;;;18.51;38.22
30819;BME280;17546;42.674;23.284;2024-02-28T09:15:12;95182.53;;;18.57;37.86
30819;BME280;17546;42.674;23.284;2024-02-28T09:17:38;95178.41;;;18.85;37.33
30819;BME280;17546;42.674;23.284;2024-02-28T09:20:04;95196.19;;;19.27;37.00
30819;BME280;17546;42.674;23.284;2024-02-28T09:22:31;95171.88;;;19.30;36.71
30819;BME280;17546;42.674;23.284;2024-02-28T09:24:57;95164.97;;;19.17;36.98
30819;BME280;17546;42.674;23.284;2024-02-28T09:27:22;95159.47;;;19.46;36.99
30819;BME280;17546;42.674;23.284;2024-02-28T09:29:50;95181.06;;;19.86;36.73
30819;BME280;17546;42.674;23.284;2024-02-28T09:32:15;95164.47;;;19.95;36.58
30819;BME280;17546;42.674;23.284;2024-02-28T09:34:41;95169.16;;;20.21;35.67
30819;BME280;17546;42.674;23.284;2024-02-28T09:37:06;95149.75;;;20.31;35.95
30819;BME280;17546;42.674;23.284;2024-02-28T09:39:32;95157.03;;;20.06;36.29
30819;BME280;17546;42.674;23.284;2024-02-28T09:41:57;95163.47;;;20.63;35.03
30819;BME280;17546;42.674;23.284;2024-02-28T09:44:23;95173.81;;;21.05;34.97
30819;BME280;17546;42.674;23.284;2024-02-28T09:46:52;95154.00;;;21.34;34.26
30819;BME280;17546;42.674;23.284;2024-02-28T09:49:18;95153.72;;;21.60;34.33
30819;BME280;17546;42.674;23.284;2024-02-28T09:51:44;95157.00;;;21.36;33.98
30819;BME280;17546;42.674;23.284;2024-02-28T09:54:14;95159.44;;;21.32;33.99
30819;BME280;17546;42.674;23.284;2024-02-28T09:56:40;95147.16;;;21.65;33.29
30819;BME280;17546;42.674;23.284;2024-02-28T09:59:06;95147.28;;;21.44;33.53
30819;BME280;17546;42.674;23.284;2024-02-28T10:01:37;95154.09;;;21.64;33.02
30819;BME280;17546;42.674;23.284;2024-02-28T10:04:07;95159.94;;;21.59;33.11
30819;BME280;17546;42.674;23.284;2024-02-28T10:06:36;95135.50;;;21.02;33.77
30819;BME280;17546;42.674;23.284;2024-02-28T10:09:01;95136.16;;;21.23;33.11
30819;BME280;17546;42.674;23.284;2024-02-28T10:11:27;95157.84;;;21.59;32.80
30819;BME280;17546;42.674;23.284;2024-02-28T10:13:52;95154.06;;;21.49;33.37
30819;BME280;17546;42.674;23.284;2024-02-28T10:16:20;95150.28;;;21.39;33.20
30819;BME280;17546;42.674;23.284;2024-02-28T10:18:46;95135.41;;;21.31;33.59
30819;BME280;17546;42.674;23.284;2024-02-28T10:21:12;95140.75;;;20.98;34.15
30819;BME280;17546;42.674;23.284;2024-02-28T10:23:41;95118.69;;;21.40;33.83
30819;BME280;17546;42.674;23.284;2024-02-28T10:26:09;95114.94;;;21.38;33.64
30819;BME280;17546;42.674;23.284;2024-02-28T10:28:37;95133.84;;;21.14;33.73
30819;BME280;17546;42.674;23.284;2024-02-28T10:31:04;95119.09;;;21.37;33.79
30819;BME280;17546;42.674;23.284;2024-02-28T10:33:30;95108.25;;;21.56;33.51
30819;BME280;17546;42.674;23.284;2024-02-28T10:35:58;95112.97;;;21.92;33.18
30819;BME280;17546;42.674;23.284;2024-02-28T10:38:26;95127.97;;;22.18;32.57
30819;BME280;17546;42.674;23.284;2024-02-28T10:40:53;95099.22;;;22.35;32.75
30819;BME280;17546;42.674;23.284;2024-02-28T10:43:19;95102.69;;;22.74;32.35
30819;BME280;17546;42.674;23.284;2024-02-28T10:45:45;95102.38;;;23.10;31.87
30819;BME280;17546;42.674;23.284;2024-02-28T10:48:14;95085.47;;;22.95;30.99
30819;BME280;17546;42.674;23.284;2024-02-28T10:50:40;95085.44;;;22.54;32.24
30819;BME280;17546;42.674;23.284;2024-02-28T10:53:13;95104.97;;;22.67;32.02
30819;BME280;17546;42.674;23.284;2024-02-28T10:55:40;95103.16;;;23.03;30.75
30819;BME280;17546;42.674;23.284;2024-02-28T10:58:08;95104.84;;;23.06;30.42
30819;BME280;17546;42.674;23.284;2024-02-28T11:00:39;95097.66;;;22.57;31.50
30819;BME280;17546;42.674;23.284;2024-02-28T11:03:07;95078.22;;;22.76;31.14
30819;BME280;17546;42.674;23.284;2024-02-28T11:05:37;95101.50;;;22.92;30.51
30819;BME280;17546;42.674;23.284;2024-02-28T11:08:08;95099.19;;;23.06;30.71
30819;BME280;17546;42.674;23.284;2024-02-28T11:10:35;95093.88;;;23.18;30.75
30819;BME280;17546;42.674;23.284;2024-02-28T11:13:00;95093.63;;;22.83;30.46
30819;BME280;17546;42.674;23.284;2024-02-28T11:15:26;95086.94;;;23.44;30.22
30819;BME280;17546;42.674;23.284;2024-02-28T11:17:53;95074.19;;;23.60;29.81
30819;BME280;17546;42.674;23.284;2024-02-28T11:20:18;95082.22;;;23.06;29.51
30819;BME280;17546;42.674;23.284;2024-02-28T11:22:44;95056.53;;;22.86;29.49
30819;BME280;17546;42.674;23.284;2024-02-28T11:25:09;95075.03;;;23.13;29.54
30819;BME280;17546;42.674;23.284;2024-02-28T11:27:45;95071.03;;;23.23;29.75
30819;BME280;17546;42.674;23.284;2024-02-28T11:30:12;95061.72;;;23.63;29.49
30819;BME280;17546;42.674;23.284;2024-02-28T11:32:38;95033.97;;;22.79;29.28
30819;BME280;17546;42.674;23.284;2024-02-28T11:35:04;95043.84;;;23.36;29.50
30819;BME280;17546;42.674;23.284;2024-02-28T11:37:31;95052.94;;;23.26;29.42
30819;BME280;17546;42.674;23.284;2024-02-28T11:39:57;95060.97;;;22.97;29.80
30819;BME280;17546;42.674;23.284;2024-02-28T11:42:23;95058.50;;;23.42;28.68
30819;BME280;17546;42.674;23.284;2024-02-28T11:44:55;95054.75;;;23.64;28.26
30819;BME280;17546;42.674;23.284;2024-02-28T11:47:25;95056.53;;;23.19;28.67
30819;BME280;17546;42.674;23.284;2024-02-28T11:49:51;95051.53;;;23.10;28.74
30819;BME280;17546;42.674;23.284;2024-02-28T11:52:16;95051.44;;;22.21;28.93
30819;BME280;17546;42.674;23.284;2024-02-28T11:54:42;95045.47;;;22.73;28.91
30819;BME280;17546;42.674;23.284;2024-02-28T11:57:07;95026.94;;;22.47;28.28
30819;BME280;17546;42.674;23.284;2024-02-28T11:59:33;95043.66;;;23.01;27.94
30819;BME280;17546;42.674;23.284;2024-02-28T12:01:58;95018.22;;;23.34;28.13
30819;BME280;17546;42.674;23.284;2024-02-28T12:04:24;95035.91;;;23.09;28.11
30819;BME280;17546;42.674;23.284;2024-02-28T12:06:53;95031.09;;;22.86;28.17
30819;BME280;17546;42.674;23.284;2024-02-28T12:09:18;95005.78;;;22.71;28.23
30819;BME280;17546;42.674;23.284;2024-02-28T12:11:44;95027.66;;;22.96;28.19
30819;BME280;17546;42.674;23.284;2024-02-28T12:14:12;95020.25;;;23.08;28.22
30819;BME280;17546;42.674;23.284;2024-02-28T12:16:40;95019.66;;;22.28;28.81
30819;BME280;17546;42.674;23.284;2024-02-28T12:19:10;94992.81;;;23.01;28.04
30819;BME280;17546;42.674;23.284;2024-02-28T12:21:39;94996.00;;;23.30;27.77
30819;BME280;17546;42.674;23.284;2024-02-28T12:24:08;95014.63;;;23.08;28.45
30819;BME280;17546;42.674;23.284;2024-02-28T12:26:35;94987.25;;;22.45;28.76
30819;BME280;17546;42.674;23.284;2024-02-28T12:29:01;94989.09;;;23.23;28.61
30819;BME280;17546;42.674;23.284;2024-02-28T12:31:27;95015.03;;;22.97;28.59
30819;BME280;17546;42.674;23.284;2024-02-28T12:33:52;95006.91;;;23.08;27.92
30819;BME280;17546;42.674;23.284;2024-02-28T12:36:19;94988.13;;;23.28;27.25
30819;BME280;17546;42.674;23.284;2024-02-28T12:38:45;94991.66;;;23.54;27.46
30819;BME280;17546;42.674;23.284;2024-02-28T12:41:11;95005.75;;;23.87;27.14
30819;BME280;17546;42.674;23.284;2024-02-28T12:43:38;95006.69;;;23.39;27.13